Flight Track Log - Related Links

Times and Time Zones

All times are in EDT time to prevent confusion due to time zone crossing. See the SWA1377 flight status page for this flight to view local times or setup timezone preferences in your user account.

Time Position Orientation Groundspeed Altitude Reporting Facility
EDT Latitude Longitude Course Direction KTS MPH feet Rate Location/Type
Mon 10:26:26 AM 41.7667 -87.7167 86° East 209 241 3,000  Level Chicago TRACON
Mon 10:27:38 AM 41.7714 -87.6222 86° East 249 287 5,000 2,060 Climbing Chicago Center
Mon 10:28:40 AM 41.7814 -87.5119 83° East 278 320 7,600 3,145 Climbing Chicago Center
Mon 10:29:42 AM 41.7917 -87.3961 83° East 310 357 11,500 3,659 Climbing Chicago Center
Mon 10:30:43 AM 41.7839 -87.2456 94° East 340 391 15,100 3,171 Climbing Chicago Center
Mon 10:31:45 AM 41.7675 -87.1025 99° East 375 432 18,000 2,855 Climbing Chicago Center
Mon 10:32:47 AM 41.7644 -86.9461 91° East 414 476 21,000 2,565 Climbing Chicago Center
Mon 10:33:49 AM 41.7664 -86.7839 89° East 433 498 23,300 2,419 Climbing Chicago Center
Mon 10:34:51 AM 41.7667 -86.6097 90° East 459 528 26,000 2,274 Climbing Chicago Center
Mon 10:35:53 AM 41.7672 -86.4333 90° East 471 542 28,000 1,790 Climbing Chicago Center
Mon 10:36:55 AM 41.7794 -86.2497 85° East 491 565 29,700 2,226 Climbing Chicago Center
Mon 10:37:57 AM 41.8181 -86.0275 77° East 509 586 32,600 2,468 Climbing Chicago Center
Mon 10:38:59 AM 41.8497 -85.8447 77° East 503 579 34,800 1,161 Climbing Chicago Center
Mon 10:40:01 AM 41.8808 -85.6594 77° East 504 580 35,000 98 Climbing Chicago Center
Mon 10:41:02 AM 41.9125 -85.4736 77° East 505 581 35,000  Level Chicago Center
Mon 10:42:04 AM 41.9419 -85.2878 78° East 503 579 35,000  Level Chicago Center
Mon 10:42:27 AM 41.9542 -85.2075 78° East 505 581 35,000  Level Cleveland Center
Mon 10:43:27 AM 41.9514 -85.0175 91° East 500 575 35,000  Level Cleveland Center
Mon 10:44:27 AM 41.9522 -84.8303 90° East 495 570 35,000  Level Cleveland Center
Mon 10:45:27 AM 41.9756 -84.6447 80° East 495 570 35,000  Level Cleveland Center
Mon 10:46:27 AM 41.9986 -84.4617 80° East 500 575 35,000  Level Cleveland Center
Mon 10:47:27 AM 42.0161 -84.3117 81° East 500 575 35,000  Level Cleveland Center
Mon 10:48:27 AM 42.0328 -84.1114 84° East 500 575 35,000  Level Cleveland Center
Mon 10:49:27 AM 42.0550 -83.9281 81° East 500 575 35,000  Level Cleveland Center
Mon 10:50:27 AM 42.0769 -83.7444 81° East 500 575 35,000  Level Cleveland Center
Mon 10:51:27 AM 42.0964 -83.5608 82° East 495 570 35,000  Level Cleveland Center
Mon 10:52:27 AM 42.1178 -83.3769 81° East 495 570 35,000  Level Cleveland Center
Mon 10:53:27 AM 42.1369 -83.1761 83° East 495 570 35,000 -100 Level Cleveland Center
Mon 10:54:27 AM 42.1578 -82.9950 81° East 495 570 34,800 -600 Descending Cleveland Center
Mon 10:55:27 AM 42.1781 -82.8164 81° East 500 575 33,800 -900 Descending Cleveland Center
Mon 10:56:27 AM 42.1939 -82.6375 83° East 495 570 33,000 -400 Descending Cleveland Center
Mon 10:57:27 AM 42.2136 -82.4586 81° East 484 557 33,000  Level Cleveland Center
Mon 10:58:27 AM 42.2517 -82.2886 73° East 473 544 33,000 -200 Level Cleveland Center
Mon 10:59:27 AM 42.2914 -82.1186 72° East 468 539 32,600 -700 Descending Cleveland Center
Mon 11:00:27 AM 42.3311 -81.9481 72° East 473 544 31,600 -950 Descending Cleveland Center
Mon 11:01:27 AM 42.3769 -81.7750 70° East 483 556 30,700 -1,000 Descending Cleveland Center
Mon 11:02:27 AM 42.4161 -81.6042 73° East 472 543 29,600 -950 Descending Cleveland Center
Mon 11:03:27 AM 42.4506 -81.4611 72° East 460 529 28,800 -1,300 Descending Cleveland Center
Mon 11:04:27 AM 42.4600 -81.2953 86° East 447 514 27,000 -1,950 Descending Cleveland Center
Mon 11:05:27 AM 42.4631 -81.1347 88° East 436 502 24,900 -1,500 Descending Cleveland Center
Mon 11:06:27 AM 42.4636 -80.9772 90° East 421 484 24,000 -450 Descending Cleveland Center
Mon 11:07:27 AM 42.4703 -80.8169 87° East 421 484 24,000  Level Cleveland Center
Mon 11:08:27 AM 42.4728 -80.6481 89° East 421 484 24,000  Level Cleveland Center
Mon 11:09:27 AM 42.4747 -80.4931 89° East 416 479 24,000  Level Cleveland Center
Mon 11:10:27 AM 42.4786 -80.3328 88° East 416 479 24,000 -350 Level Cleveland Center
Mon 11:11:27 AM 42.4783 -80.1778 90° East 416 479 23,300 -1,300 Descending Cleveland Center
Mon 11:12:27 AM 42.4839 -80.0314 87° East 405 466 21,400 -1,850 Descending Cleveland Center
Mon 11:13:27 AM 42.4875 -79.8961 88° East 400 460 19,600 -1,815 Descending Cleveland Center
Mon 11:14:26 AM 42.4864 -79.7497 91° East 400 460 17,800 -1,916 Descending Cleveland Center
Mon 11:15:26 AM 42.4917 -79.6117 87° East 382 440 15,800 -1,983 Descending Cleveland Center
Mon 11:16:27 AM 42.4925 -79.4794 89° East 368 423 13,800 -1,950 Descending Cleveland Center
Mon 11:17:26 AM 42.5331 -79.3717 63° Northeast 324 373 11,900 -1,513 Descending Cleveland Center
Mon 11:18:26 AM 42.6158 -79.3108 28° Northeast 303 349 10,800 -1,289 Descending Cleveland Center
Mon 11:19:27 AM 42.6983 -79.2497 29° Northeast 298 343 9,300 -1,488 Descending Cleveland Center
Mon 11:20:27 AM 42.7686 -79.1917 31° Northeast 298 343 7,800 -1,450 Descending Cleveland Center
Mon 11:21:27 AM 42.8242 -79.1283 40° Northeast 298 343 6,400 -1,361 Descending Cleveland Center
Mon 11:22:26 AM 42.8939 -79.0472 40° Northeast 292 336 5,100 -700 Descending Cleveland Center
Mon 11:23:27 AM 42.9514 -78.9778 41° Northeast 285 328 5,000 -50 Descending Cleveland Center
Mon 11:24:26 AM 42.9939 -78.8944 55° Northeast 273 314 5,000  Level Cleveland Center
Mon 11:25:01 AM 43.0167 -78.8333 63° Northeast 247 284 5,000  Level Buffalo TRACON
Mon 11:26:01 AM 43.0500 -78.7667 56° Northeast 232 267 5,000 -500 Level Buffalo TRACON
Mon 11:27:01 AM 43.0333 -78.6833 105° East 212 244 4,000 -1,200 Descending Buffalo TRACON
Mon 11:28:01 AM 43.0000 -78.6333 132° Southeast 166 191 2,600 -1,150 Descending Buffalo TRACON
Mon 11:29:01 AM 42.9833 -78.6667 236° Southwest 121 139 1,700 -900 Descending Buffalo TRACON

Login

Don't have an account? Register now (free) for customized features, flight alerts, and more!